Juneau, WI

10:53 AM CST on December 06, 2016 (GMT -0600)
Dodge County | | Change Station
Active Advisory: Dense Fog Advisory

Elev 935 ft 43.43 °N, 88.70 °W | Updated 18 minutes ago

Overcast
Overcast
32 °F
Feels Like 23 °F
N
12
Wind Variable Wind from SW

Today
High -- | Low -- °F
--% Chance of Precip.
Yesterday
High -- | Low -- °F
Precip. -- in
Pressure 29.77 in
Visibility 3.0 miles
Clouds Overcast 400 ft
Windchill 23 °F
Dew Point 31 °F
Humidity 95%
Rainfall 0.00 in
Snow Depth Not available.
7:13 AM 4:18 PM
Waxing Crescent, 43% visible
METAR KUNU 061635Z AUTO 23010KT 3SM BR OVC004 00/M01 A2977 RMK AO2 T00001007
Pressure 29.77 in
Visibility 3.0 miles
Clouds Overcast 400 ft
Windchill 23 °F
Dew Point 31 °F
Humidity 95%
Rainfall 0.00 in
Snow Depth Not available.
7:13 AM 4:18 PM
Waxing Crescent, 43% visible
METAR KUNU 061635Z AUTO 23010KT 3SM BR OVC004 00/M01 A2977 RMK AO2 T00001007

10-Day Weather Forecast

Almanac

Astronomy

Dec. 06, 2016 Rise Set
Actual Time
Civil Twilight
Nautical Twilight
Astronomical Twilight
Moon
Length of Visible Light
Length of Day
Tomorrow will be .
, % of the Moon is Illuminated

Today's Extremes

State Highs State Lows

Community

WunderPhotos

Upload Photos

1,955,983 photos uploaded!

WunderBlog® & News

Nearby

Air Quality

  Air Quality AQ Index Pollutant
Not available.

Snow Depth

Station Depth Elevation

Earthquake Activity

City Distance Mag. Time & Date
Minimum magnitude displayed is 2.5.

Coastal Water Temperatures

Place Temperature

Stations

Nearby Weather Stations

Station Location Temp. Windchill Dew Point Humidity Wind Precip. Elev Updated Type
                   

Watches & Warnings

Dense Fog Advisory
Issued: 9:01 AM CST Dec. 6, 2016 – National Weather Service

... Dense fog advisory remains in effect until 11 am CST this
morning...

A dense fog advisory remains in effect until 11 am CST this
morning.

* Timing... areas of dense fog this morning.

* Visibility... areas of 1/4 mile or much less.

* Impacts... reduced visibilities and slippery roads from frost
formation.

Precautionary/preparedness actions...

A dense fog advisory means visibilities will frequently be
reduced to less than one quarter mile. If driving... slow down...
use your headlights... and leave plenty of distance ahead of you.



Halbach